createdAt,value
2023-11-16T00:00:34.288Z,60.10
2023-11-16T00:03:07.103Z,60.67
2023-11-16T00:05:37.390Z,60.96
2023-11-16T00:08:08.726Z,61.32
2023-11-16T00:10:38.567Z,61.32
2023-11-16T00:13:06.665Z,61.33
2023-11-16T00:15:34.426Z,61.82
2023-11-16T00:18:05.673Z,61.54
2023-11-16T00:20:38.917Z,61.87
2023-11-16T00:23:05.780Z,62.14
2023-11-16T00:25:32.651Z,62.56
2023-11-16T00:28:00.733Z,61.71
2023-11-16T00:30:28.013Z,62.10
2023-11-16T00:32:54.973Z,62.79
2023-11-16T00:35:22.462Z,62.88
2023-11-16T00:37:53.160Z,63.18
2023-11-16T00:40:20.613Z,63.58
2023-11-16T00:42:48.157Z,63.95
2023-11-16T00:45:14.966Z,63.53
2023-11-16T00:47:41.880Z,62.86
2023-11-16T00:50:09.325Z,62.66
2023-11-16T00:52:36.284Z,63.35
2023-11-16T00:55:06.066Z,63.30
2023-11-16T00:57:32.977Z,63.29
2023-11-16T00:59:59.882Z,63.36
2023-11-16T01:02:26.735Z,63.99
2023-11-16T01:04:53.467Z,63.56
2023-11-16T01:07:20.911Z,64.26
2023-11-16T01:09:47.650Z,63.75
2023-11-16T01:12:17.602Z,63.65
2023-11-16T01:14:45.840Z,64.84
2023-11-16T01:17:23.424Z,64.73
2023-11-16T01:19:51.040Z,64.75
2023-11-16T01:22:18.133Z,64.89
2023-11-16T01:24:46.241Z,64.31
2023-11-16T01:27:17.440Z,65.06
2023-11-16T01:29:45.474Z,64.35
2023-11-16T01:32:15.049Z,64.27
2023-11-16T01:34:43.867Z,63.90
2023-11-16T01:37:11.809Z,64.81
2023-11-16T01:39:40.587Z,64.31
2023-11-16T01:42:09.213Z,64.16
2023-11-16T01:44:36.518Z,65.94
2023-11-16T01:47:07.336Z,65.83
2023-11-16T01:49:34.334Z,66.65
2023-11-16T01:52:01.155Z,67.46
2023-11-16T01:54:27.993Z,68.51
2023-11-16T01:56:55.124Z,68.27
2023-11-16T01:59:22.241Z,69.88
2023-11-16T02:01:49.256Z,71.95
2023-11-16T02:04:17.067Z,72.62
2023-11-16T02:06:44.528Z,72.48
2023-11-16T02:09:11.795Z,73.26
2023-11-16T02:11:38.582Z,72.38
2023-11-16T02:14:05.702Z,72.88
2023-11-16T02:16:32.632Z,73.95
2023-11-16T02:19:17.354Z,74.62
2023-11-16T02:21:46.470Z,73.78
2023-11-16T02:24:13.922Z,74.16
2023-11-16T02:26:43.482Z,73.88
2023-11-16T02:29:11.092Z,73.58
2023-11-16T02:31:38.920Z,73.05
2023-11-16T02:34:07.286Z,73.15
2023-11-16T02:36:34.174Z,72.87
2023-11-16T02:39:01.768Z,71.85
2023-11-16T02:41:30.511Z,70.84
2023-11-16T02:43:57.220Z,71.66
2023-11-16T02:46:23.899Z,71.29
2023-11-16T02:48:50.550Z,70.87
2023-11-16T02:51:17.331Z,70.11
2023-11-16T02:53:44.823Z,70.69
2023-11-16T02:56:14.472Z,71.58
2023-11-16T02:58:45.135Z,71.53
2023-11-16T03:01:14.329Z,72.63
2023-11-16T03:03:41.768Z,73.75
2023-11-16T03:06:10.074Z,73.16
2023-11-16T03:08:37.055Z,73.05
2023-11-16T03:11:06.931Z,73.55
2023-11-16T03:13:33.787Z,73.15
2023-11-16T03:16:01.714Z,73.31
2023-11-16T03:18:28.436Z,72.28
2023-11-16T03:20:55.134Z,70.87
2023-11-16T03:23:21.791Z,71.70
2023-11-16T03:25:48.439Z,72.10
2023-11-16T03:28:15.169Z,71.85
2023-11-16T03:30:42.005Z,71.72
2023-11-16T03:33:13.686Z,71.39
2023-11-16T03:35:40.705Z,71.05
2023-11-16T03:38:07.400Z,71.63
2023-11-16T03:40:34.289Z,70.17
2023-11-16T03:43:00.935Z,70.45
2023-11-16T03:45:28.133Z,70.93
2023-11-16T03:47:54.732Z,70.21
2023-11-16T03:50:21.436Z,69.44
2023-11-16T03:52:48.072Z,70.31
2023-11-16T03:55:14.827Z,70.62
2023-11-16T03:57:41.711Z,70.20
2023-11-16T04:00:09.675Z,69.63
2023-11-16T04:02:37.257Z,69.18
2023-11-16T04:05:06.404Z,69.05
2023-11-16T04:07:36.074Z,68.73
2023-11-16T04:10:05.550Z,68.18
2023-11-16T04:12:32.473Z,68.63
2023-11-16T04:14:59.196Z,68.58
2023-11-16T04:17:27.594Z,68.27
2023-11-16T04:19:54.567Z,68.72
2023-11-16T04:22:23.365Z,68.80
2023-11-16T04:24:53.119Z,68.92
2023-11-16T04:27:21.831Z,68.90
2023-11-16T04:29:48.917Z,68.82
2023-11-16T04:32:15.569Z,69.40
2023-11-16T04:34:43.514Z,69.35
2023-11-16T04:37:11.850Z,69.67
2023-11-16T04:39:38.641Z,70.23
2023-11-16T04:42:05.706Z,70.69
2023-11-16T04:44:35.599Z,70.44
2023-11-16T04:47:02.588Z,69.97
2023-11-16T04:49:29.378Z,69.66
2023-11-16T04:51:56.042Z,69.92
2023-11-16T04:54:22.971Z,69.81
2023-11-16T04:56:49.727Z,69.25
2023-11-16T04:59:16.389Z,69.92
2023-11-16T05:01:43.057Z,70.36
2023-11-16T05:04:10.121Z,69.51
2023-11-16T05:06:42.987Z,70.51
2023-11-16T05:09:09.871Z,70.82
2023-11-16T05:11:36.884Z,71.43
2023-11-16T05:14:05.160Z,71.50
2023-11-16T05:16:31.884Z,72.21
2023-11-16T05:18:58.583Z,72.19
2023-11-16T05:21:25.334Z,72.08
2023-11-16T05:23:52.004Z,71.03
2023-11-16T05:26:18.646Z,71.44
2023-11-16T05:28:45.339Z,72.06
2023-11-16T05:31:12.546Z,71.01
2023-11-16T05:33:39.581Z,70.13
2023-11-16T05:36:07.446Z,70.88
2023-11-16T05:38:34.192Z,72.22
2023-11-16T05:41:00.945Z,71.87
2023-11-16T05:43:27.651Z,72.52
2023-11-16T05:45:54.522Z,74.01
2023-11-16T05:48:21.303Z,74.10
2023-11-16T05:50:48.110Z,73.23
2023-11-16T05:53:15.096Z,73.54
2023-11-16T05:55:41.796Z,73.62
2023-11-16T05:58:08.492Z,73.62
2023-11-16T06:00:38.563Z,73.68
2023-11-16T06:03:06.778Z,73.71
2023-11-16T06:05:35.125Z,73.54
2023-11-16T06:08:02.003Z,73.83
2023-11-16T06:10:28.922Z,73.96
2023-11-16T06:12:59.132Z,74.90
2023-11-16T06:15:32.075Z,75.04
2023-11-16T06:18:03.927Z,74.76
2023-11-16T06:20:31.168Z,74.96
2023-11-16T06:22:58.073Z,75.24
2023-11-16T06:25:24.869Z,75.91
2023-11-16T06:27:51.821Z,75.57
2023-11-16T06:30:19.682Z,75.46
2023-11-16T06:32:46.576Z,75.09
2023-11-16T06:35:13.369Z,75.72
2023-11-16T06:37:40.067Z,76.45
2023-11-16T06:40:10.242Z,75.51
2023-11-16T06:42:38.931Z,75.50
2023-11-16T06:45:07.696Z,75.87
2023-11-16T06:47:36.055Z,76.43
2023-11-16T06:50:06.360Z,76.19
2023-11-16T06:52:34.164Z,76.05
2023-11-16T06:55:01.744Z,76.26
2023-11-16T06:57:28.759Z,76.75
2023-11-16T06:59:55.573Z,76.29
2023-11-16T07:02:23.646Z,75.80
2023-11-16T07:04:50.546Z,75.43
2023-11-16T07:07:18.404Z,75.02
2023-11-16T07:09:47.484Z,74.80
2023-11-16T07:12:16.676Z,75.32
2023-11-16T07:14:51.190Z,75.46
2023-11-16T07:17:20.988Z,75.38
2023-11-16T07:19:49.134Z,77.46
2023-11-16T07:22:15.833Z,79.43
2023-11-16T07:24:45.803Z,78.86
2023-11-16T07:27:13.576Z,77.87
2023-11-16T07:29:44.442Z,76.83
2023-11-16T07:32:12.696Z,75.48
2023-11-16T07:34:40.913Z,73.19
2023-11-16T07:37:08.197Z,72.12
2023-11-16T07:39:35.702Z,71.61
2023-11-16T07:42:02.386Z,70.78
2023-11-16T07:44:29.017Z,69.63
2023-11-16T07:46:55.880Z,68.85
2023-11-16T07:49:24.310Z,67.35
2023-11-16T07:51:52.381Z,67.21
2023-11-16T07:54:19.160Z,66.03
2023-11-16T07:56:56.263Z,64.05
2023-11-16T07:59:32.087Z,62.87
2023-11-16T08:02:02.157Z,63.43
2023-11-16T08:04:31.011Z,63.18
2023-11-16T08:06:59.604Z,63.84
2023-11-16T08:09:30.674Z,64.64
2023-11-16T08:11:58.662Z,64.23
2023-11-16T08:14:26.989Z,64.24
2023-11-16T08:16:58.240Z,62.87
2023-11-16T08:19:28.478Z,64.96
2023-11-16T08:21:58.509Z,64.42
2023-11-16T08:24:27.473Z,63.42
2023-11-16T08:26:57.424Z,63.70
2023-11-16T08:29:25.122Z,62.72
2023-11-16T08:31:55.478Z,60.45
2023-11-16T08:34:25.296Z,58.65
2023-11-16T08:36:52.313Z,56.52
2023-11-16T08:39:19.539Z,55.99
2023-11-16T08:41:46.520Z,55.30
2023-11-16T08:44:13.903Z,54.92
2023-11-16T08:46:47.230Z,54.04
2023-11-16T08:49:13.984Z,53.63
2023-11-16T08:51:40.688Z,52.87
2023-11-16T08:54:10.198Z,52.80
2023-11-16T08:56:41.718Z,52.48
2023-11-16T08:59:10.546Z,51.19
2023-11-16T09:01:39.647Z,51.39
2023-11-16T09:04:07.899Z,49.87
2023-11-16T09:06:35.430Z,49.53
2023-11-16T09:09:10.514Z,50.02
2023-11-16T09:11:37.519Z,49.84
2023-11-16T09:14:05.576Z,47.88
2023-11-16T09:16:33.222Z,46.27
2023-11-16T09:19:00.989Z,46.33
2023-11-16T09:21:30.719Z,45.82
2023-11-16T09:23:57.715Z,46.75
2023-11-16T09:26:25.613Z,45.88
2023-11-16T09:29:01.396Z,45.44
2023-11-16T09:31:34.964Z,44.98
2023-11-16T09:34:02.107Z,43.99
2023-11-16T09:36:29.021Z,44.65
2023-11-16T09:38:59.164Z,43.97
2023-11-16T09:41:29.931Z,42.64
2023-11-16T09:44:03.317Z,42.58
2023-11-16T09:46:32.837Z,42.35
2023-11-16T09:49:00.700Z,40.60
2023-11-16T09:51:30.550Z,39.92
2023-11-16T09:54:02.540Z,39.01
2023-11-16T09:56:36.590Z,39.18
2023-11-16T09:59:26.623Z,38.66
2023-11-16T10:02:09.048Z,37.83
2023-11-16T10:04:36.527Z,38.21
2023-11-16T10:07:06.612Z,37.30
2023-11-16T10:09:43.224Z,38.04
2023-11-16T10:12:10.467Z,39.02
2023-11-16T10:14:53.669Z,38.11
2023-11-16T10:17:26.619Z,40.92
2023-11-16T10:19:53.641Z,41.19
2023-11-16T10:22:20.354Z,42.11
2023-11-16T10:24:51.104Z,42.03
2023-11-16T10:27:18.718Z,42.74
2023-11-16T10:29:45.428Z,43.46
2023-11-16T10:32:13.382Z,45.77
2023-11-16T10:34:41.276Z,45.07
2023-11-16T10:37:11.224Z,43.66
2023-11-16T10:39:39.094Z,43.10
2023-11-16T10:42:07.698Z,45.06
2023-11-16T10:44:35.266Z,44.99
2023-11-16T10:47:02.735Z,43.32
2023-11-16T10:49:30.495Z,42.95
2023-11-16T10:52:02.420Z,43.42
2023-11-16T10:54:33.761Z,42.44
2023-11-16T10:57:00.716Z,43.26
2023-11-16T10:59:28.814Z,41.86
2023-11-16T11:01:58.377Z,41.64
2023-11-16T11:04:27.011Z,42.01
2023-11-16T11:06:56.442Z,41.52
2023-11-16T11:09:40.249Z,38.88
2023-11-16T11:12:14.298Z,39.57
2023-11-16T11:14:48.021Z,39.89
2023-11-16T11:17:21.749Z,40.69
2023-11-16T11:19:56.229Z,38.53
2023-11-16T11:22:32.873Z,36.53
2023-11-16T11:25:03.350Z,36.67
2023-11-16T11:27:32.077Z,35.72
2023-11-16T11:30:13.041Z,38.59
2023-11-16T11:32:53.384Z,37.47
2023-11-16T11:35:27.364Z,38.59
2023-11-16T11:37:54.015Z,39.80
2023-11-16T11:40:29.720Z,39.63
2023-11-16T11:42:56.374Z,39.92
2023-11-16T11:45:23.183Z,40.04
2023-11-16T11:47:50.571Z,41.75
2023-11-16T11:50:20.603Z,40.28
2023-11-16T11:52:49.079Z,38.81
2023-11-16T11:55:15.959Z,39.53
2023-11-16T11:57:42.887Z,40.06
2023-11-16T12:00:14.304Z,38.65
2023-11-16T12:02:42.812Z,39.39
2023-11-16T12:05:18.282Z,39.56
2023-11-16T12:07:59.695Z,39.50
2023-11-16T12:10:26.481Z,40.05
2023-11-16T12:12:57.768Z,40.65
2023-11-16T12:15:25.163Z,42.76
2023-11-16T12:17:51.995Z,42.91
2023-11-16T12:20:18.815Z,42.53
2023-11-16T12:22:45.499Z,42.36
2023-11-16T12:25:14.991Z,43.13
2023-11-16T12:27:44.319Z,43.95
2023-11-16T12:30:20.503Z,45.75
2023-11-16T12:32:47.428Z,45.37
2023-11-16T12:35:15.747Z,45.58
2023-11-16T12:37:44.047Z,45.93
2023-11-16T12:40:21.723Z,45.94
2023-11-16T12:42:53.877Z,45.78
2023-11-16T12:45:21.858Z,46.28
2023-11-16T12:47:49.253Z,45.68
2023-11-16T12:50:17.301Z,46.70
2023-11-16T12:52:43.996Z,46.45
2023-11-16T12:55:13.856Z,46.39
2023-11-16T12:57:47.569Z,46.17
2023-11-16T13:00:18.770Z,46.80
2023-11-16T13:02:46.840Z,48.05
2023-11-16T13:05:16.457Z,46.12
2023-11-16T13:07:43.365Z,47.64
2023-11-16T13:10:11.301Z,47.83
2023-11-16T13:12:38.933Z,47.94
2023-11-16T13:15:07.633Z,48.06
2023-11-16T13:17:34.980Z,47.85
2023-11-16T13:20:01.777Z,48.81
2023-11-16T13:22:29.018Z,49.59
2023-11-16T13:24:55.684Z,51.12
2023-11-16T13:27:28.709Z,50.55
2023-11-16T13:30:04.599Z,50.53
2023-11-16T13:32:31.952Z,50.51
2023-11-16T13:34:58.682Z,51.45
2023-11-16T13:37:26.557Z,51.17
2023-11-16T13:39:55.188Z,51.48
2023-11-16T13:42:22.009Z,52.32
2023-11-16T13:44:48.691Z,51.81
2023-11-16T13:47:16.048Z,52.25
2023-11-16T13:49:43.814Z,53.05
2023-11-16T13:52:10.553Z,52.68
2023-11-16T13:54:37.255Z,52.82
2023-11-16T13:57:04.726Z,53.32
2023-11-16T13:59:31.903Z,54.61
2023-11-16T14:01:58.632Z,55.14
2023-11-16T14:04:25.368Z,55.02
2023-11-16T14:06:52.092Z,55.61
2023-11-16T14:09:21.565Z,55.98
2023-11-16T14:11:49.119Z,56.29
2023-11-16T14:14:15.766Z,56.33
2023-11-16T14:16:42.821Z,56.62
2023-11-16T14:19:09.572Z,56.25
2023-11-16T14:21:36.382Z,55.97
2023-11-16T14:24:09.432Z,56.14
2023-11-16T14:26:37.943Z,54.73
2023-11-16T14:29:04.646Z,55.65
2023-11-16T14:31:31.431Z,56.38
2023-11-16T14:33:58.169Z,56.64
2023-11-16T14:36:24.963Z,58.16
2023-11-16T14:38:51.718Z,60.38
2023-11-16T14:41:18.492Z,61.09
2023-11-16T14:43:45.267Z,61.65
2023-11-16T14:46:12.097Z,62.35
2023-11-16T14:48:39.084Z,62.66
2023-11-16T14:51:06.134Z,63.12
2023-11-16T14:53:34.817Z,63.50
2023-11-16T14:56:03.512Z,63.14
2023-11-16T14:58:31.183Z,63.00
2023-11-16T15:00:59.305Z,63.61
2023-11-16T15:03:26.499Z,63.38
2023-11-16T15:05:53.116Z,63.95
2023-11-16T15:08:19.849Z,64.27
2023-11-16T15:10:46.866Z,65.32
2023-11-16T15:13:14.402Z,65.40
2023-11-16T15:15:41.343Z,65.33
2023-11-16T15:18:08.082Z,65.74
2023-11-16T15:20:36.724Z,66.00
2023-11-16T15:23:03.552Z,66.07
2023-11-16T15:25:30.214Z,66.52
2023-11-16T15:27:57.157Z,66.14
2023-11-16T15:30:24.105Z,66.21
2023-11-16T15:32:54.363Z,67.02
2023-11-16T15:35:21.561Z,67.14
2023-11-16T15:37:50.074Z,67.05
2023-11-16T15:40:16.946Z,67.08
2023-11-16T15:42:43.718Z,67.32
2023-11-16T15:45:13.566Z,67.26
2023-11-16T15:47:40.431Z,67.24
2023-11-16T15:50:07.680Z,66.77
2023-11-16T15:52:34.418Z,66.44
2023-11-16T15:55:01.304Z,66.70
2023-11-16T15:57:29.882Z,66.44
2023-11-16T16:00:00.370Z,66.31
2023-11-16T16:02:31.390Z,66.37
2023-11-16T16:05:01.058Z,66.76
2023-11-16T16:07:28.346Z,66.89
2023-11-16T16:09:55.226Z,66.84
2023-11-16T16:12:22.237Z,66.43
2023-11-16T16:14:48.882Z,67.01
2023-11-16T16:17:15.736Z,66.67
2023-11-16T16:19:42.712Z,66.24
2023-11-16T16:22:09.566Z,66.38
2023-11-16T16:24:36.733Z,66.45
2023-11-16T16:27:08.797Z,66.56
2023-11-16T16:29:36.630Z,66.77
2023-11-16T16:32:05.289Z,66.78
2023-11-16T16:34:32.189Z,66.67
2023-11-16T16:36:58.864Z,66.89
2023-11-16T16:39:25.521Z,66.50
2023-11-16T16:41:53.358Z,66.41
2023-11-16T16:44:20.824Z,66.70
2023-11-16T16:46:48.916Z,67.12
2023-11-16T16:49:18.853Z,67.09
2023-11-16T16:51:45.974Z,67.98
2023-11-16T16:54:17.569Z,67.86
2023-11-16T16:56:46.347Z,67.68
2023-11-16T16:59:15.977Z,67.62
2023-11-16T17:01:43.576Z,67.73
2023-11-16T17:04:10.788Z,67.41
2023-11-16T17:06:38.276Z,67.27
2023-11-16T17:09:05.147Z,67.53
2023-11-16T17:11:31.815Z,68.35
2023-11-16T17:13:58.757Z,69.39
2023-11-16T17:16:28.347Z,69.56
2023-11-16T17:18:55.781Z,69.20
2023-11-16T17:21:22.810Z,69.15
2023-11-16T17:23:52.486Z,69.03
2023-11-16T17:26:20.950Z,68.90
2023-11-16T17:28:49.660Z,68.82
2023-11-16T17:31:18.397Z,69.37
2023-11-16T17:33:45.625Z,69.93
2023-11-16T17:36:12.583Z,70.16
2023-11-16T17:38:39.339Z,70.79
2023-11-16T17:41:06.857Z,72.02
2023-11-16T17:43:39.732Z,72.07
2023-11-16T17:46:08.281Z,72.16
2023-11-16T17:48:35.657Z,72.73
2023-11-16T17:51:03.931Z,73.39
2023-11-16T17:53:30.671Z,73.91
2023-11-16T17:55:57.950Z,74.11
2023-11-16T17:58:25.406Z,74.74
2023-11-16T18:00:52.227Z,75.52
2023-11-16T18:03:19.175Z,76.28
2023-11-16T18:05:45.923Z,77.25
2023-11-16T18:08:13.201Z,77.58
2023-11-16T18:10:45.005Z,77.78
2023-11-16T18:13:18.256Z,77.78
2023-11-16T18:15:45.487Z,77.43
2023-11-16T18:18:12.479Z,77.75
2023-11-16T18:20:40.378Z,77.90
2023-11-16T18:23:09.264Z,77.79
2023-11-16T18:25:41.228Z,78.07
2023-11-16T18:28:14.053Z,78.03
2023-11-16T18:30:46.777Z,78.10
2023-11-16T18:33:15.461Z,78.42
2023-11-16T18:35:42.663Z,78.55
2023-11-16T18:38:12.181Z,78.84
2023-11-16T18:40:41.156Z,78.65
2023-11-16T18:43:10.414Z,78.58
2023-11-16T18:45:37.120Z,78.60
2023-11-16T18:48:13.119Z,78.12
2023-11-16T18:50:41.491Z,78.33
2023-11-16T18:53:09.354Z,78.69
2023-11-16T18:55:37.310Z,78.82
2023-11-16T18:58:04.152Z,79.53
2023-11-16T19:00:31.263Z,79.69
2023-11-16T19:03:09.108Z,79.94
2023-11-16T19:05:35.820Z,79.63
2023-11-16T19:08:02.604Z,79.10
2023-11-16T19:10:31.848Z,79.19
2023-11-16T19:12:58.705Z,79.07
2023-11-16T19:15:26.491Z,79.05
2023-11-16T19:17:54.217Z,79.49
2023-11-16T19:20:24.710Z,80.00
2023-11-16T19:22:53.040Z,81.09
2023-11-16T19:25:22.782Z,80.93
2023-11-16T19:27:49.443Z,80.87
2023-11-16T19:30:16.619Z,80.91
2023-11-16T19:32:47.604Z,81.23
2023-11-16T19:35:17.277Z,81.83
2023-11-16T19:37:44.015Z,81.97
2023-11-16T19:40:22.970Z,82.75
2023-11-16T19:42:59.775Z,83.22
2023-11-16T19:45:26.521Z,83.44
2023-11-16T19:47:53.188Z,83.61
2023-11-16T19:50:19.992Z,84.23
2023-11-16T19:52:46.648Z,83.88
2023-11-16T19:55:15.431Z,84.05
2023-11-16T19:57:42.590Z,84.33
2023-11-16T20:00:10.341Z,84.70
2023-11-16T20:02:37.350Z,84.65
2023-11-16T20:05:06.663Z,85.03
2023-11-16T20:07:33.959Z,84.73
2023-11-16T20:10:00.819Z,84.58
2023-11-16T20:12:27.654Z,84.03
2023-11-16T20:14:57.696Z,83.83
2023-11-16T20:17:27.590Z,84.29
2023-11-16T20:19:55.534Z,84.67
2023-11-16T20:22:22.234Z,84.35
2023-11-16T20:24:49.147Z,84.45
2023-11-16T20:27:16.129Z,84.59
2023-11-16T20:29:43.127Z,84.21
2023-11-16T20:32:10.330Z,83.88
2023-11-16T20:34:37.392Z,83.99
2023-11-16T20:37:06.476Z,84.12
2023-11-16T20:39:34.036Z,83.07
2023-11-16T20:42:00.830Z,82.60
2023-11-16T20:44:28.449Z,82.68
2023-11-16T20:46:55.877Z,84.22
2023-11-16T20:49:22.868Z,84.19
2023-11-16T20:51:49.941Z,85.21
2023-11-16T20:54:16.688Z,85.52
2023-11-16T20:56:43.375Z,87.00
2023-11-16T20:59:10.676Z,86.81
2023-11-16T21:01:37.242Z,86.75
2023-11-16T21:04:05.766Z,86.33
2023-11-16T21:06:36.472Z,87.05
2023-11-16T21:09:10.619Z,86.64
2023-11-16T21:11:38.365Z,85.92
2023-11-16T21:14:05.633Z,85.33
2023-11-16T21:16:32.664Z,84.60
2023-11-16T21:18:59.629Z,84.22
2023-11-16T21:21:26.940Z,83.60
2023-11-16T21:23:53.596Z,83.26
2023-11-16T21:26:20.814Z,82.64
2023-11-16T21:28:47.389Z,82.33
2023-11-16T21:31:14.246Z,81.94
2023-11-16T21:33:40.958Z,81.75
2023-11-16T21:36:09.630Z,81.89
2023-11-16T21:38:36.333Z,82.07
2023-11-16T21:41:03.262Z,82.45
2023-11-16T21:43:29.927Z,82.58
2023-11-16T21:45:56.747Z,83.11
2023-11-16T21:48:23.423Z,83.46
2023-11-16T21:50:50.041Z,83.62
2023-11-16T21:53:19.857Z,83.97
2023-11-16T21:55:47.860Z,84.07
2023-11-16T21:58:14.695Z,84.30
2023-11-16T22:00:41.625Z,84.12
2023-11-16T22:03:09.065Z,84.07
2023-11-16T22:05:35.812Z,84.25
2023-11-16T22:08:02.458Z,84.96
2023-11-16T22:10:29.117Z,85.32
2023-11-16T22:12:55.871Z,85.22
2023-11-16T22:15:22.623Z,85.65
2023-11-16T22:17:50.891Z,86.55
2023-11-16T22:20:18.491Z,87.77
2023-11-16T22:22:47.425Z,88.50
2023-11-16T22:25:14.755Z,88.36
2023-11-16T22:27:43.753Z,89.01
2023-11-16T22:30:12.218Z,88.38
2023-11-16T22:32:42.564Z,88.57
2023-11-16T22:35:11.752Z,88.01
2023-11-16T22:37:42.523Z,88.03
2023-11-16T22:40:11.387Z,87.61
2023-11-16T22:42:38.994Z,87.00
2023-11-16T22:45:06.715Z,87.63
2023-11-16T22:47:33.431Z,89.56
2023-11-16T22:50:00.293Z,91.54
2023-11-16T22:52:27.150Z,92.45
2023-11-16T22:54:54.140Z,92.98
2023-11-16T22:57:20.898Z,93.35
2023-11-16T22:59:47.559Z,93.18
2023-11-16T23:02:14.340Z,93.01
2023-11-16T23:04:43.348Z,92.25
2023-11-16T23:07:14.967Z,91.94
2023-11-16T23:09:43.369Z,91.63
2023-11-16T23:12:10.324Z,91.50
2023-11-16T23:14:37.543Z,91.65
2023-11-16T23:17:10.730Z,92.10
2023-11-16T23:19:40.847Z,92.10
2023-11-16T23:22:14.528Z,91.67
2023-11-16T23:24:45.774Z,90.87
2023-11-16T23:27:13.962Z,90.40
2023-11-16T23:29:41.697Z,89.25
2023-11-16T23:32:08.885Z,90.23
2023-11-16T23:34:36.593Z,91.47
2023-11-16T23:37:03.757Z,92.63
2023-11-16T23:39:30.933Z,92.48
2023-11-16T23:42:01.417Z,92.09
2023-11-16T23:44:28.269Z,91.40
2023-11-16T23:46:56.090Z,91.74
2023-11-16T23:49:23.634Z,92.16
2023-11-16T23:51:51.504Z,92.49
2023-11-16T23:54:18.229Z,93.00
2023-11-16T23:56:45.028Z,93.59
2023-11-16T23:59:13.514Z,94.00
